Time;durP1;ratioP1;P1;durP2;ratioP2;P2;SDS_P1;SDS_P2;PMS_P1;PMS_P2;Temp;Humidity;BMP_temperature;BMP_pressure;BME280_temperature;BME280_humidity;BME280_pressure;Samples;Min_cycle;Max_cycle;Signal;HPM_P1;HPM_P2
2021/08/27 00:01:29;;;;;;;5.57;1.45;;;14.10;94.20;;;;;;5026279;28;20122;-67
2021/08/27 00:03:54;;;;;;;7.85;1.60;;;14.10;94.30;;;;;;5026768;28;20029;-67
2021/08/27 00:06:21;;;;;;;4.80;1.67;;;14.10;94.20;;;;;;5027869;28;20032;-67
2021/08/27 00:08:46;;;;;;;4.32;1.70;;;14.10;94.20;;;;;;5026834;28;20025;-68
2021/08/27 00:11:13;;;;;;;4.88;2.08;;;14.10;94.20;;;;;;5027432;28;20109;-68
2021/08/27 00:13:49;;;;;;;4.00;1.40;;;14.00;94.30;;;;;;5028208;28;20112;-67
2021/08/27 00:16:15;;;;;;;4.78;1.70;;;14.00;94.30;;;;;;5027499;28;20033;-68
2021/08/27 00:18:40;;;;;;;5.63;2.10;;;14.00;94.30;;;;;;5026158;28;20048;-68
2021/08/27 00:21:06;;;;;;;6.03;1.38;;;14.00;94.20;;;;;;5026908;28;20029;-67
2021/08/27 00:23:32;;;;;;;5.78;1.85;;;14.00;94.40;;;;;;5026353;28;20040;-67
2021/08/27 00:25:57;;;;;;;6.82;1.40;;;13.90;94.40;;;;;;5034586;28;20065;-67
2021/08/27 00:28:23;;;;;;;5.38;1.60;;;13.90;94.50;;;;;;5027099;28;20042;-67
2021/08/27 00:30:49;;;;;;;3.63;1.77;;;13.90;94.40;;;;;;5026449;28;21846;-68
2021/08/27 00:33:15;;;;;;;5.35;1.88;;;13.90;94.50;;;;;;5025331;28;20028;-67
2021/08/27 00:35:40;;;;;;;5.13;2.10;;;13.90;94.60;;;;;;5027565;28;20092;-68
2021/08/27 00:38:07;;;;;;;8.75;1.85;;;13.80;94.60;;;;;;5027274;28;20029;-67
2021/08/27 00:40:32;;;;;;;6.78;1.85;;;13.80;94.80;;;;;;5027008;28;20028;-67
2021/08/27 00:42:58;;;;;;;6.45;1.80;;;13.70;94.80;;;;;;5024775;28;20030;-67
2021/08/27 00:45:24;;;;;;;7.57;2.00;;;13.70;95.00;;;;;;5026984;28;20219;-67
2021/08/27 00:47:50;;;;;;;3.45;1.83;;;13.60;95.00;;;;;;5027679;28;20105;-67
2021/08/27 00:50:16;;;;;;;8.98;2.17;;;13.70;95.00;;;;;;5026649;28;20119;-66
2021/08/27 00:52:42;;;;;;;4.97;1.95;;;13.70;95.00;;;;;;5010340;28;20492;-67
2021/08/27 00:55:08;;;;;;;5.53;1.52;;;13.60;95.00;;;;;;5031183;28;20048;-68
2021/08/27 00:57:35;;;;;;;4.38;1.90;;;13.60;95.00;;;;;;5030636;28;20034;-68
2021/08/27 01:00:02;;;;;;;4.68;2.08;;;13.60;95.00;;;;;;5029781;28;20108;-67
2021/08/27 01:02:28;;;;;;;5.30;1.85;;;13.60;95.00;;;;;;5028671;28;20062;-66
2021/08/27 01:04:54;;;;;;;5.68;2.22;;;13.60;95.10;;;;;;5031342;28;20064;-68
2021/08/27 01:07:30;;;;;;;4.82;1.80;;;13.50;95.10;;;;;;5031138;28;20033;-67
2021/08/27 01:10:21;;;;;;;2.83;1.55;;;13.50;95.10;;;;;;5030153;28;20029;-68
2021/08/27 01:13:14;;;;;;;12.20;2.40;;;13.50;95.00;;;;;;5031027;28;20029;-67
2021/08/27 01:16:04;;;;;;;4.28;1.85;;;13.50;95.00;;;;;;5030250;28;20037;-68
2021/08/27 01:18:52;;;;;;;5.70;1.60;;;13.50;95.00;;;;;;5031613;28;20030;-67
2021/08/27 01:21:23;;;;;;;4.85;1.83;;;13.50;95.20;;;;;;5029359;28;20113;-67
2021/08/27 01:23:53;;;;;;;8.27;1.70;;;13.40;95.10;;;;;;5027681;28;20083;-68
2021/08/27 01:26:22;;;;;;;6.47;1.95;;;13.50;95.10;;;;;;5030589;28;20036;-67
2021/08/27 01:28:50;;;;;;;7.18;1.80;;;13.40;95.10;;;;;;5035067;28;20077;-68
2021/08/27 01:31:26;;;;;;;4.95;2.10;;;13.40;95.10;;;;;;5028355;28;20029;-66
2021/08/27 01:34:15;;;;;;;5.63;1.80;;;13.40;95.20;;;;;;5030318;28;20025;-67
2021/08/27 01:36:42;;;;;;;3.80;1.73;;;13.40;95.20;;;;;;5029998;28;20069;-68
2021/08/27 01:39:11;;;;;;;7.65;1.88;;;13.40;95.10;;;;;;5029340;28;20029;-67
2021/08/27 01:41:39;;;;;;;4.25;1.85;;;13.50;95.00;;;;;;5029469;28;20113;-68
2021/08/27 01:44:07;;;;;;;6.70;2.08;;;13.50;95.00;;;;;;5027900;28;20029;-68
2021/08/27 01:46:41;;;;;;;6.68;2.33;;;13.50;95.00;;;;;;5030158;28;20021;-68
2021/08/27 01:49:08;;;;;;;6.35;1.75;;;13.50;94.90;;;;;;5028875;28;20025;-67
2021/08/27 01:51:35;;;;;;;6.30;1.63;;;13.50;94.80;;;;;;5028111;28;20123;-68
2021/08/27 01:54:02;;;;;;;5.63;1.63;;;13.40;94.80;;;;;;5029773;28;20033;-68
2021/08/27 01:56:28;;;;;;;7.72;2.00;;;13.50;94.80;;;;;;5030315;28;20117;-66
2021/08/27 01:58:57;;;;;;;3.78;1.75;;;13.50;94.80;;;;;;5029248;28;20108;-66
2021/08/27 02:01:24;;;;;;;4.45;1.70;;;13.50;94.90;;;;;;5011371;28;20086;-67
2021/08/27 02:03:52;;;;;;;4.43;2.10;;;13.50;94.90;;;;;;5027983;28;20037;-68
2021/08/27 02:06:19;;;;;;;4.80;1.90;;;13.50;94.70;;;;;;5029750;28;20098;-68
2021/08/27 02:08:46;;;;;;;4.43;2.10;;;13.50;94.80;;;;;;5012651;28;20028;-68
2021/08/27 02:11:12;;;;;;;13.93;2.40;;;13.50;94.70;;;;;;5028490;28;20029;-68
2021/08/27 02:13:39;;;;;;;7.25;2.38;;;13.50;94.60;;;;;;5030539;28;20033;-67
2021/08/27 02:16:06;;;;;;;4.82;1.73;;;13.50;94.60;;;;;;5027503;28;20583;-67
2021/08/27 02:18:35;;;;;;;4.55;1.55;;;13.50;94.80;;;;;;5025407;28;20022;-67
2021/08/27 02:21:06;;;;;;;4.07;1.30;;;13.50;94.70;;;;;;5028605;28;20040;-67
2021/08/27 02:23:33;;;;;;;6.45;1.83;;;13.50;94.80;;;;;;5026711;28;20029;-67
2021/08/27 02:26:01;;;;;;;8.35;1.90;;;13.50;94.70;;;;;;5027471;28;20064;-67
2021/08/27 02:28:27;;;;;;;6.50;1.75;;;13.50;94.70;;;;;;5012818;28;20047;-67
2021/08/27 02:30:55;;;;;;;5.25;1.60;;;13.50;94.80;;;;;;5009542;28;20061;-67
2021/08/27 02:33:21;;;;;;;3.92;1.65;;;13.50;94.70;;;;;;5026611;28;20799;-67
2021/08/27 02:35:48;;;;;;;7.20;1.77;;;13.50;94.70;;;;;;5029229;28;20021;-67
2021/08/27 02:38:23;;;;;;;4.45;1.63;;;13.60;94.60;;;;;;5026700;28;20026;-68
2021/08/27 02:40:49;;;;;;;3.00;1.30;;;13.60;94.60;;;;;;5029408;28;20100;-67
2021/08/27 02:43:15;;;;;;;5.60;1.90;;;13.60;94.60;;;;;;5028998;28;20048;-68
2021/08/27 02:45:41;;;;;;;5.05;2.00;;;13.50;94.70;;;;;;5028770;28;20057;-67
2021/08/27 02:48:07;;;;;;;4.72;1.60;;;13.60;94.60;;;;;;5027598;28;20025;-67
2021/08/27 02:50:38;;;;;;;4.88;1.67;;;13.60;94.70;;;;;;5028483;28;20116;-67
2021/08/27 02:53:14;;;;;;;;;;;13.60;94.70;;;;;;5029612;28;20022;-67
2021/08/27 02:55:50;;;;;;;3.13;1.40;;;13.60;94.60;;;;;;5028838;28;19979;-68
2021/08/27 02:58:23;;;;;;;6.47;1.60;;;13.60;94.70;;;;;;5028263;28;20040;-68
2021/08/27 03:00:58;;;;;;;5.18;1.83;;;13.60;94.60;;;;;;5027618;28;20079;-68
2021/08/27 03:03:30;;;;;;;3.78;1.77;;;13.70;94.50;;;;;;5027414;28;20041;-68
2021/08/27 03:06:10;;;;;;;5.70;1.98;;;13.70;94.50;;;;;;5028298;28;20025;-68
2021/08/27 03:08:45;;;;;;;5.97;1.80;;;13.70;94.40;;;;;;5028198;28;20029;-68
2021/08/27 03:11:19;;;;;;;8.10;2.20;;;13.70;94.60;;;;;;5027410;28;20140;-67
2021/08/27 03:13:57;;;;;;;4.28;1.67;;;13.70;94.60;;;;;;5027823;28;20052;-67
2021/08/27 03:16:26;;;;;;;6.57;2.45;;;13.70;94.60;;;;;;5010384;28;20040;-67
2021/08/27 03:18:57;;;;;;;9.55;1.95;;;13.70;94.60;;;;;;5027909;28;20029;-67
2021/08/27 03:21:40;;;;;;;5.38;1.90;;;13.70;94.60;;;;;;5026038;28;20044;-67
2021/08/27 03:24:35;;;;;;;6.03;1.98;;;13.70;94.60;;;;;;5028907;28;20080;-67
2021/08/27 03:27:04;;;;;;;6.10;1.67;;;13.70;94.60;;;;;;5024420;28;20264;-67
2021/08/27 03:29:36;;;;;;;5.70;1.80;;;13.70;94.60;;;;;;5028421;28;20083;-67
2021/08/27 03:32:03;;;;;;;7.93;2.13;;;13.70;94.70;;;;;;5026593;28;20025;-67
2021/08/27 03:34:29;;;;;;;4.85;1.70;;;13.70;94.70;;;;;;5009964;28;20061;-67
2021/08/27 03:36:57;;;;;;;6.05;2.00;;;13.70;94.70;;;;;;5026737;28;20401;-67
2021/08/27 03:39:24;;;;;;;5.00;2.00;;;13.70;94.70;;;;;;5027881;28;20044;-66
2021/08/27 03:41:51;;;;;;;4.35;2.00;;;13.70;94.80;;;;;;5025489;28;20026;-68
2021/08/27 03:44:19;;;;;;;6.97;2.10;;;13.70;94.90;;;;;;5028304;28;20534;-67
2021/08/27 03:46:45;;;;;;;5.57;1.70;;;13.70;95.00;;;;;;5026858;28;20028;-67
2021/08/27 03:49:12;;;;;;;4.25;1.80;;;13.70;95.00;;;;;;5027768;28;20025;-67
2021/08/27 03:51:39;;;;;;;5.22;2.03;;;13.70;95.00;;;;;;5025486;28;20056;-67
2021/08/27 03:54:05;;;;;;;3.53;1.67;;;13.70;95.00;;;;;;5009519;28;20423;-68
2021/08/27 03:56:33;;;;;;;4.38;1.67;;;13.70;95.00;;;;;;5027940;28;20029;-67
2021/08/27 03:58:59;;;;;;;4.95;1.90;;;13.70;95.00;;;;;;5007922;28;20026;-68
2021/08/27 04:01:25;;;;;;;4.13;1.55;;;13.70;95.00;;;;;;5026289;28;20110;-67
2021/08/27 04:03:51;;;;;;;7.32;1.98;;;13.80;95.00;;;;;;5024993;28;20041;-67
2021/08/27 04:06:17;;;;;;;5.60;1.77;;;13.80;95.00;;;;;;5026850;28;20025;-67
2021/08/27 04:08:44;;;;;;;6.32;2.00;;;13.80;95.00;;;;;;5028379;28;20460;-67
2021/08/27 04:11:11;;;;;;;5.22;1.55;;;13.80;95.00;;;;;;5025147;28;20025;-68
2021/08/27 04:13:37;;;;;;;6.32;1.98;;;13.80;95.00;;;;;;5026912;28;20033;-67
2021/08/27 04:16:04;;;;;;;5.75;2.38;;;13.80;95.00;;;;;;5028336;28;20109;-67
2021/08/27 04:18:29;;;;;;;4.57;2.05;;;13.80;95.00;;;;;;5025865;28;20787;-68
2021/08/27 04:20:55;;;;;;;4.03;2.08;;;13.80;95.00;;;;;;5025348;28;20038;-67
2021/08/27 04:23:21;;;;;;;3.72;1.52;;;13.80;95.00;;;;;;5023945;28;20368;-67
2021/08/27 04:25:47;;;;;;;6.80;1.58;;;13.80;95.10;;;;;;5026369;28;20029;-66
2021/08/27 04:28:13;;;;;;;8.20;1.83;;;13.80;95.10;;;;;;5029001;28;20036;-67
2021/08/27 04:30:39;;;;;;;8.27;2.20;;;13.80;95.10;;;;;;5030236;28;20121;-68
2021/08/27 04:33:05;;;;;;;10.70;2.00;;;13.80;95.10;;;;;;5030285;28;20567;-67
2021/08/27 04:35:30;;;;;;;7.82;2.05;;;13.80;95.10;;;;;;5029084;28;20029;-67
2021/08/27 04:37:56;;;;;;;6.88;1.60;;;13.90;95.10;;;;;;5031042;28;20396;-66
2021/08/27 04:40:23;;;;;;;5.85;2.22;;;13.90;95.20;;;;;;5029118;28;20037;-67
2021/08/27 04:42:49;;;;;;;4.13;1.42;;;13.90;95.20;;;;;;5028109;28;20079;-68
2021/08/27 04:45:16;;;;;;;5.10;1.50;;;13.90;95.30;;;;;;5029445;28;20389;-66
2021/08/27 04:47:42;;;;;;;4.65;2.05;;;13.90;95.30;;;;;;5028661;28;20034;-68
2021/08/27 04:50:09;;;;;;;4.47;1.80;;;13.90;95.40;;;;;;5029488;28;20028;-68
2021/08/27 04:52:35;;;;;;;5.05;1.92;;;13.90;95.50;;;;;;5030138;28;20079;-68
2021/08/27 04:55:01;;;;;;;3.60;1.92;;;13.90;95.50;;;;;;5028158;28;20029;-68
2021/08/27 04:57:29;;;;;;;4.05;1.58;;;14.00;95.60;;;;;;5031022;28;20529;-68
2021/08/27 04:59:54;;;;;;;4.82;1.80;;;14.00;95.70;;;;;;5029778;28;20112;-68
2021/08/27 05:02:20;;;;;;;5.75;1.80;;;14.00;95.80;;;;;;5026931;28;20159;-67
2021/08/27 05:04:46;;;;;;;4.20;1.70;;;14.00;95.90;;;;;;5030864;28;20026;-67
2021/08/27 05:07:12;;;;;;;5.47;1.40;;;14.00;95.90;;;;;;5031477;28;20526;-66
2021/08/27 05:09:37;;;;;;;2.88;1.50;;;14.10;95.90;;;;;;5029184;28;20032;-67
2021/08/27 05:12:03;;;;;;;6.28;2.05;;;14.10;96.00;;;;;;5029403;28;20041;-68
2021/08/27 05:14:29;;;;;;;6.38;2.03;;;14.10;96.00;;;;;;5031020;28;20256;-67
2021/08/27 05:16:55;;;;;;;4.38;1.60;;;14.10;96.10;;;;;;5026528;28;20486;-66
2021/08/27 05:19:21;;;;;;;6.38;2.17;;;14.10;96.00;;;;;;5026213;28;20033;-67
2021/08/27 05:21:46;;;;;;;3.30;1.60;;;14.10;96.10;;;;;;5021904;28;20033;-67
2021/08/27 05:24:12;;;;;;;5.43;1.48;;;14.10;96.10;;;;;;5029178;28;20112;-67
2021/08/27 05:26:38;;;;;;;6.30;1.73;;;14.10;96.20;;;;;;5013857;28;20032;-67
2021/08/27 05:29:04;;;;;;;5.90;1.60;;;14.20;96.30;;;;;;5025805;28;20156;-68
2021/08/27 05:31:31;;;;;;;2.85;1.30;;;14.10;96.40;;;;;;5022988;28;20025;-67
2021/08/27 05:33:59;;;;;;;3.70;1.50;;;14.10;96.40;;;;;;5029684;28;20045;-67
2021/08/27 05:36:25;;;;;;;5.30;1.40;;;14.20;96.40;;;;;;5029658;28;20037;-68
2021/08/27 05:38:51;;;;;;;3.72;1.25;;;14.30;96.40;;;;;;5027573;28;20036;-68
2021/08/27 05:41:16;;;;;;;2.95;1.20;;;14.30;96.50;;;;;;5029939;28;20041;-67
2021/08/27 05:43:42;;;;;;;3.63;1.33;;;14.30;96.50;;;;;;5029354;28;20037;-68
2021/08/27 05:46:08;;;;;;;4.28;1.17;;;14.30;96.50;;;;;;5023746;28;20113;-67
2021/08/27 05:48:34;;;;;;;5.47;1.90;;;14.30;96.50;;;;;;5019403;28;20030;-66
2021/08/27 05:50:59;;;;;;;9.00;1.70;;;14.30;96.40;;;;;;5022896;28;20452;-67
2021/08/27 05:53:25;;;;;;;3.03;1.63;;;14.30;96.40;;;;;;5028025;28;20021;-68
2021/08/27 05:55:51;;;;;;;4.00;1.40;;;14.40;96.40;;;;;;5032366;28;20033;-67
2021/08/27 05:58:17;;;;;;;4.88;1.92;;;14.40;96.70;;;;;;5031925;28;20061;-66
2021/08/27 06:00:42;;;;;;;3.15;1.88;;;14.30;96.60;;;;;;5026374;28;20104;-67
2021/08/27 06:03:08;;;;;;;5.97;1.85;;;14.30;96.70;;;;;;5029962;28;20357;-66
2021/08/27 06:05:33;;;;;;;7.28;2.38;;;14.40;96.80;;;;;;5030649;28;20166;-67
2021/08/27 06:07:59;;;;;;;3.63;1.50;;;14.30;96.80;;;;;;5029177;28;20694;-68
2021/08/27 06:10:25;;;;;;;5.93;1.55;;;14.40;96.80;;;;;;5031440;28;20029;-67
2021/08/27 06:12:50;;;;;;;3.97;1.52;;;14.40;96.80;;;;;;5028145;28;20024;-67
2021/08/27 06:15:17;;;;;;;7.55;1.60;;;14.50;96.80;;;;;;5028356;28;20034;-68
2021/08/27 06:17:42;;;;;;;6.45;1.60;;;14.50;96.70;;;;;;5029999;28;20040;-66
2021/08/27 06:20:09;;;;;;;5.45;1.50;;;14.50;96.90;;;;;;5030788;28;20033;-68
2021/08/27 06:22:35;;;;;;;4.18;1.60;;;14.50;96.90;;;;;;5026321;28;20037;-67
2021/08/27 06:25:02;;;;;;;3.90;1.35;;;14.50;96.90;;;;;;5029972;28;20033;-68
2021/08/27 06:27:27;;;;;;;2.65;1.40;;;14.50;97.00;;;;;;5028861;28;20025;-67
2021/08/27 06:29:53;;;;;;;3.47;1.38;;;14.50;97.20;;;;;;5030831;28;20029;-67
2021/08/27 06:32:19;;;;;;;2.30;1.42;;;14.60;97.20;;;;;;5025663;28;20100;-67
2021/08/27 06:34:45;;;;;;;3.03;1.20;;;14.60;97.40;;;;;;5027978;28;20029;-68
2021/08/27 06:37:11;;;;;;;2.47;1.20;;;14.60;97.40;;;;;;5019823;28;20041;-67
2021/08/27 06:39:37;;;;;;;3.08;1.27;;;14.60;97.70;;;;;;5026645;28;20021;-67
2021/08/27 06:42:04;;;;;;;4.30;1.35;;;14.60;97.80;;;;;;5027405;28;20030;-68
2021/08/27 06:44:30;;;;;;;3.30;1.15;;;14.60;97.80;;;;;;5027245;28;20117;-67
2021/08/27 06:46:56;;;;;;;3.83;1.40;;;14.60;97.90;;;;;;5028503;28;20113;-68
2021/08/27 06:49:21;;;;;;;2.15;1.30;;;14.70;98.00;;;;;;5026219;28;20033;-67
2021/08/27 06:51:47;;;;;;;7.10;1.25;;;14.70;98.00;;;;;;5018690;28;20121;-68
2021/08/27 06:54:13;;;;;;;2.67;1.10;;;14.70;98.00;;;;;;5026984;28;20048;-67
2021/08/27 06:56:39;;;;;;;3.58;1.00;;;14.70;98.10;;;;;;5025129;28;20047;-68
2021/08/27 06:59:05;;;;;;;3.58;1.17;;;14.80;98.00;;;;;;5027230;28;20025;-68
2021/08/27 07:01:31;;;;;;;4.20;1.40;;;14.80;98.00;;;;;;5025796;28;20521;-68
2021/08/27 07:03:57;;;;;;;4.15;1.15;;;14.90;98.10;;;;;;5027862;28;20038;-68
2021/08/27 07:06:23;;;;;;;2.20;1.50;;;14.90;98.10;;;;;;5028033;28;20079;-68
2021/08/27 07:08:50;;;;;;;3.50;1.40;;;14.90;98.20;;;;;;5024660;28;20101;-68
2021/08/27 07:11:16;;;;;;;3.05;1.35;;;15.00;98.20;;;;;;5017532;28;20033;-68
2021/08/27 07:13:45;;;;;;;4.13;1.52;;;15.10;98.10;;;;;;5025620;28;20088;-67
2021/08/27 07:16:11;;;;;;;2.10;1.30;;;15.10;98.30;;;;;;5027805;28;20040;-67
2021/08/27 07:18:40;;;;;;;1.73;0.98;;;15.10;98.20;;;;;;5005747;28;20029;-68
2021/08/27 07:21:06;;;;;;;4.35;1.15;;;15.20;98.20;;;;;;5028188;28;20108;-68
2021/08/27 07:23:32;;;;;;;3.20;1.13;;;15.20;98.30;;;;;;5021093;28;20037;-67
2021/08/27 07:25:58;;;;;;;2.20;1.00;;;15.20;98.30;;;;;;5027710;28;20030;-68
2021/08/27 07:28:24;;;;;;;2.50;0.90;;;15.20;98.20;;;;;;5026316;28;20029;-67
2021/08/27 07:30:49;;;;;;;3.05;1.10;;;15.20;98.30;;;;;;5028292;28;20033;-67
2021/08/27 07:33:15;;;;;;;2.40;1.23;;;15.20;98.40;;;;;;5027237;28;20025;-68
2021/08/27 07:35:41;;;;;;;4.90;1.10;;;15.20;98.40;;;;;;5028355;28;20473;-67
2021/08/27 07:38:06;;;;;;;2.28;1.13;;;15.20;98.50;;;;;;5027017;28;20025;-68
2021/08/27 07:40:32;;;;;;;3.03;1.40;;;15.20;98.50;;;;;;5025406;28;20060;-68
2021/08/27 07:43:00;;;;;;;3.45;0.90;;;15.20;98.70;;;;;;5028172;28;20037;-67
2021/08/27 07:45:25;;;;;;;4.80;1.30;;;15.20;98.70;;;;;;5008977;28;20448;-67
2021/08/27 07:47:51;;;;;;;2.08;1.10;;;15.20;98.80;;;;;;5027702;28;20550;-67
2021/08/27 07:50:17;;;;;;;2.90;1.17;;;15.20;99.00;;;;;;5025340;28;20038;-67
2021/08/27 07:52:43;;;;;;;2.53;1.17;;;15.20;98.80;;;;;;5025601;28;20036;-68
2021/08/27 07:55:09;;;;;;;2.58;1.15;;;15.30;98.90;;;;;;5027727;28;20033;-68
2021/08/27 07:57:43;;;;;;;2.03;1.02;;;15.30;98.80;;;;;;5025017;28;20048;-67
2021/08/27 08:00:10;;;;;;;2.13;0.95;;;15.40;98.90;;;;;;5028714;28;20026;-68
2021/08/27 08:02:36;;;;;;;2.08;0.93;;;15.40;98.80;;;;;;5024164;28;20029;-67
2021/08/27 08:05:02;;;;;;;1.85;1.05;;;15.50;98.70;;;;;;5028494;28;20029;-68
2021/08/27 08:07:28;;;;;;;2.80;1.10;;;15.50;98.70;;;;;;5026740;28;20044;-65
2021/08/27 08:09:53;;;;;;;1.58;1.02;;;15.40;99.00;;;;;;5026164;28;20030;-67
2021/08/27 08:12:19;;;;;;;2.47;1.08;;;15.30;99.10;;;;;;5026845;28;20041;-68
2021/08/27 08:14:45;;;;;;;3.20;1.27;;;15.30;99.20;;;;;;5024291;28;20960;-68
2021/08/27 08:17:10;;;;;;;2.70;0.80;;;15.40;99.20;;;;;;5026511;28;20026;-67
2021/08/27 08:19:36;;;;;;;1.95;0.70;;;15.50;99.10;;;;;;5026147;28;20144;-68
2021/08/27 08:22:02;;;;;;;1.55;1.05;;;15.60;99.00;;;;;;5010722;28;20022;-68
2021/08/27 08:24:28;;;;;;;1.65;0.90;;;15.60;99.20;;;;;;5025947;28;20034;-68
2021/08/27 08:26:53;;;;;;;2.10;0.95;;;15.60;99.10;;;;;;5027262;28;20438;-68
2021/08/27 08:29:19;;;;;;;3.00;1.02;;;15.70;98.90;;;;;;5028368;28;20033;-67
2021/08/27 08:31:46;;;;;;;1.77;1.13;;;15.80;98.90;;;;;;5026347;28;20033;-67
2021/08/27 08:34:12;;;;;;;2.53;1.35;;;15.80;99.00;;;;;;5026956;28;20033;-67
2021/08/27 08:36:38;;;;;;;2.30;1.15;;;16.00;98.70;;;;;;5027456;28;20041;-68
2021/08/27 08:39:05;;;;;;;1.85;1.15;;;16.10;98.60;;;;;;5027224;28;20443;-67
2021/08/27 08:41:31;;;;;;;2.17;1.10;;;16.20;98.40;;;;;;5024146;28;20029;-68
2021/08/27 08:43:57;;;;;;;1.13;0.80;;;16.30;98.50;;;;;;5023795;28;20052;-68
2021/08/27 08:46:23;;;;;;;2.45;1.08;;;16.30;98.30;;;;;;5027850;28;20053;-68
2021/08/27 08:48:51;;;;;;;1.33;0.80;;;16.30;98.30;;;;;;5031427;28;20056;-67
2021/08/27 08:51:18;;;;;;;2.33;1.10;;;16.30;98.20;;;;;;5027729;28;20037;-67
2021/08/27 08:53:46;;;;;;;2.20;0.90;;;16.40;98.00;;;;;;5025946;28;20026;-67
2021/08/27 08:56:12;;;;;;;1.60;1.02;;;16.40;97.90;;;;;;5027132;28;20045;-67
2021/08/27 08:58:38;;;;;;;1.60;0.80;;;16.40;97.90;;;;;;5024571;28;20531;-67
2021/08/27 09:01:03;;;;;;;3.17;1.00;;;16.40;97.90;;;;;;5024825;28;20033;-68
2021/08/27 09:03:30;;;;;;;1.40;0.77;;;16.40;97.90;;;;;;5026749;28;20034;-68
2021/08/27 09:05:56;;;;;;;2.60;1.10;;;16.50;97.90;;;;;;5026055;28;20222;-68
2021/08/27 09:08:33;;;;;;;2.33;0.90;;;16.50;97.90;;;;;;5026538;28;20450;-68
2021/08/27 09:10:58;;;;;;;3.13;1.30;;;16.50;97.80;;;;;;5009516;28;20029;-68
2021/08/27 09:13:32;;;;;;;2.00;1.35;;;16.60;97.80;;;;;;5009463;28;20037;-67
2021/08/27 09:16:06;;;;;;;2.45;0.95;;;16.70;97.80;;;;;;5028252;28;20037;-67
2021/08/27 09:18:47;;;;;;;2.53;1.13;;;16.70;97.60;;;;;;5029847;28;20499;-68
2021/08/27 09:21:33;;;;;;;2.58;1.30;;;16.70;97.50;;;;;;5030884;28;20120;-67
2021/08/27 09:24:17;;;;;;;1.63;1.10;;;16.70;97.30;;;;;;5028479;28;20048;-68
2021/08/27 09:26:49;;;;;;;2.25;1.15;;;16.70;97.40;;;;;;5029885;28;20029;-67
2021/08/27 09:29:33;;;;;;;1.90;1.13;;;16.70;97.40;;;;;;5030325;28;20108;-68
2021/08/27 09:31:59;;;;;;;3.03;1.30;;;16.70;97.50;;;;;;5030040;28;20108;-68
2021/08/27 09:34:27;;;;;;;2.78;0.85;;;16.80;97.50;;;;;;5026235;28;20033;-67
2021/08/27 09:36:58;;;;;;;5.53;1.50;;;16.90;97.40;;;;;;5031637;28;20034;-68
2021/08/27 09:39:34;;;;;;;2.53;1.20;;;17.00;97.40;;;;;;5028263;28;20220;-68
2021/08/27 09:42:01;;;;;;;2.03;1.10;;;16.90;97.20;;;;;;5031291;28;20060;-66
2021/08/27 09:44:27;;;;;;;2.25;0.90;;;17.00;97.40;;;;;;5010302;28;20488;-68
2021/08/27 09:46:53;;;;;;;2.35;1.00;;;17.00;97.50;;;;;;5028940;28;20394;-68
2021/08/27 09:49:37;;;;;;;4.50;1.17;;;17.20;97.50;;;;;;5029587;28;20395;-68
2021/08/27 09:52:08;;;;;;;4.38;1.27;;;17.40;97.30;;;;;;5027819;28;20032;-68
2021/08/27 09:54:35;;;;;;;;;;;17.50;97.00;;;;;;5034650;28;20064;-68
2021/08/27 09:57:03;;;;;;;1.77;0.90;;;17.50;96.90;;;;;;5035353;28;19912;-67
2021/08/27 09:59:38;;;;;;;2.40;1.40;;;17.50;97.00;;;;;;5011463;28;20034;-67
2021/08/27 10:02:06;;;;;;;1.33;0.93;;;17.50;97.00;;;;;;5028056;28;20099;-68
2021/08/27 10:04:33;;;;;;;1.83;0.82;;;17.50;97.00;;;;;;5029761;28;20491;-68
2021/08/27 10:06:58;;;;;;;1.70;0.93;;;17.70;96.80;;;;;;5028280;28;20144;-66
2021/08/27 10:09:42;;;;;;;1.92;0.90;;;17.90;96.40;;;;;;5028900;28;20104;-68
2021/08/27 10:12:09;;;;;;;2.22;1.02;;;17.90;95.90;;;;;;5029050;28;20030;-67
2021/08/27 10:14:36;;;;;;;3.60;1.10;;;17.70;95.80;;;;;;5029248;28;20491;-68
2021/08/27 10:17:03;;;;;;;1.48;0.80;;;17.60;95.70;;;;;;5028729;28;20113;-68
2021/08/27 10:19:29;;;;;;;3.28;0.90;;;17.40;95.70;;;;;;5023017;28;20083;-67
2021/08/27 10:21:54;;;;;;;2.33;0.77;;;17.30;96.00;;;;;;5030352;28;20353;-67
2021/08/27 10:24:20;;;;;;;1.52;0.70;;;17.20;96.00;;;;;;5028251;28;20075;-67
2021/08/27 10:26:46;;;;;;;2.13;0.80;;;17.30;96.10;;;;;;5025578;28;20052;-68
2021/08/27 10:29:12;;;;;;;3.63;0.98;;;17.40;96.10;;;;;;5026007;28;20026;-67
2021/08/27 10:31:47;;;;;;;1.08;0.63;;;17.40;95.80;;;;;;5025047;28;20379;-68
2021/08/27 10:34:15;;;;;;;2.53;0.77;;;17.30;95.50;;;;;;5026229;28;20029;-68
2021/08/27 10:36:43;;;;;;;2.10;0.68;;;17.10;95.60;;;;;;5021604;28;20503;-67
2021/08/27 10:39:09;;;;;;;1.55;0.68;;;17.20;95.90;;;;;;5024344;28;20033;-68
2021/08/27 10:41:39;;;;;;;1.98;0.60;;;17.30;95.90;;;;;;5026182;28;20400;-67
2021/08/27 10:44:11;;;;;;;1.98;0.95;;;17.20;95.40;;;;;;5027127;28;20116;-68
2021/08/27 10:46:46;;;;;;;2.38;1.02;;;17.20;95.60;;;;;;5025904;28;20021;-67
2021/08/27 10:49:14;;;;;;;1.25;0.82;;;17.10;95.70;;;;;;5024234;28;20025;-68
2021/08/27 10:51:47;;;;;;;2.30;0.90;;;17.10;95.80;;;;;;5027030;28;20025;-68
2021/08/27 10:54:14;;;;;;;2.17;1.13;;;17.00;96.00;;;;;;5023405;28;20029;-68
2021/08/27 10:56:53;;;;;;;2.47;0.95;;;17.10;96.30;;;;;;5029281;28;20403;-67
2021/08/27 10:59:22;;;;;;;4.10;1.15;;;17.20;96.40;;;;;;5023714;28;20167;-67
2021/08/27 11:02:00;;;;;;;4.45;0.93;;;17.40;96.30;;;;;;5026598;28;20087;-68
2021/08/27 11:04:28;;;;;;;1.63;0.95;;;17.60;96.10;;;;;;5025296;28;20033;-67
2021/08/27 11:06:58;;;;;;;3.63;0.98;;;17.80;95.80;;;;;;5025831;28;20025;-68
2021/08/27 11:09:28;;;;;;;3.58;0.93;;;18.10;95.30;;;;;;5025678;28;20098;-68
2021/08/27 11:12:09;;;;;;;5.25;2.22;;;18.40;95.00;;;;;;5026308;28;20032;-69
2021/08/27 11:14:42;;;;;;;1.90;0.60;;;18.50;91.70;;;;;;5024170;28;20517;-66
2021/08/27 11:17:09;;;;;;;2.70;0.60;;;18.40;91.30;;;;;;5026925;28;20065;-69
2021/08/27 11:19:45;;;;;;;0.43;0.43;;;18.40;91.60;;;;;;5007198;28;20128;-66
2021/08/27 11:22:11;;;;;;;1.60;0.68;;;18.50;91.70;;;;;;5026155;28;20029;-66
2021/08/27 11:24:38;;;;;;;1.02;0.60;;;18.70;91.40;;;;;;5023917;28;20055;-66
2021/08/27 11:27:20;;;;;;;8.57;1.20;;;19.00;91.10;;;;;;5019918;28;20040;-66
2021/08/27 11:29:49;;;;;;;2.33;0.70;;;19.20;90.90;;;;;;5021800;28;20438;-66
2021/08/27 11:32:19;;;;;;;0.57;0.40;;;19.30;89.60;;;;;;5023082;28;20032;-66
2021/08/27 11:34:49;;;;;;;0.93;0.50;;;20.00;90.90;;;;;;5009333;28;20025;-66
2021/08/27 11:37:15;;;;;;;1.10;0.47;;;22.40;86.10;;;;;;5024032;28;20408;-67
2021/08/27 11:39:41;;;;;;;2.50;0.70;;;24.50;70.50;;;;;;5028055;28;20303;-67
2021/08/27 11:42:07;;;;;;;3.85;0.55;;;24.20;68.10;;;;;;5010933;28;20091;-66
2021/08/27 11:44:41;;;;;;;0.93;0.50;;;23.60;69.30;;;;;;5029919;28;20033;-66
2021/08/27 11:47:10;;;;;;;0.65;0.47;;;23.40;71.40;;;;;;5027348;28;20030;-67
2021/08/27 11:49:38;;;;;;;1.85;0.50;;;24.10;70.60;;;;;;5028765;28;20470;-67
2021/08/27 11:52:25;;;;;;;0.70;0.40;;;25.50;66.10;;;;;;5026376;28;20364;-66
2021/08/27 11:55:00;;;;;;;1.95;0.80;;;26.30;61.20;;;;;;5028289;28;20087;-66
2021/08/27 11:57:25;;;;;;;1.85;0.57;;;25.50;62.40;;;;;;5025420;28;20034;-66
2021/08/27 12:00:11;;;;;;;1.70;0.55;;;24.60;66.20;;;;;;5027483;28;20029;-67
2021/08/27 12:02:37;;;;;;;1.33;0.40;;;23.40;69.20;;;;;;5028829;28;20548;-67
2021/08/27 12:05:06;;;;;;;0.73;0.50;;;22.40;70.60;;;;;;5025622;28;20124;-67
2021/08/27 12:07:34;;;;;;;1.38;0.55;;;21.80;71.70;;;;;;5023291;28;20021;-67
2021/08/27 12:10:14;;;;;;;1.35;0.50;;;21.10;73.70;;;;;;5003401;28;20042;-67
2021/08/27 12:12:42;;;;;;;1.55;0.40;;;20.70;76.20;;;;;;5023881;28;20441;-67
2021/08/27 12:15:14;;;;;;;0.57;0.50;;;20.20;78.00;;;;;;5007416;28;20080;-67
2021/08/27 12:17:51;;;;;;;1.02;0.52;;;19.70;81.40;;;;;;5005829;28;20264;-68
2021/08/27 12:20:18;;;;;;;1.25;0.40;;;19.20;84.40;;;;;;5024187;28;20037;-69
2021/08/27 12:22:45;;;;;;;0.55;0.52;;;18.90;86.30;;;;;;5005018;28;20068;-67
2021/08/27 12:25:27;;;;;;;0.82;0.50;;;18.80;88.00;;;;;;5021891;28;20637;-67
2021/08/27 12:27:55;;;;;;;0.85;0.70;;;18.80;89.10;;;;;;5026759;28;20022;-69
2021/08/27 12:30:21;;;;;;;1.25;0.80;;;19.00;89.20;;;;;;5025055;28;20029;-67
2021/08/27 12:32:48;;;;;;;1.33;0.70;;;19.20;89.80;;;;;;5007352;28;20025;-68
2021/08/27 12:35:19;;;;;;;1.17;1.08;;;19.40;88.80;;;;;;5026810;28;20132;-65
2021/08/27 12:37:47;;;;;;;1.33;0.77;;;19.50;88.90;;;;;;5028112;28;20503;-67
2021/08/27 12:40:15;;;;;;;1.90;0.90;;;19.70;87.80;;;;;;5009885;28;20120;-70
2021/08/27 12:43:02;;;;;;;1.25;0.70;;;19.60;87.00;;;;;;5025511;28;20179;-68
2021/08/27 12:45:50;;;;;;;1.50;0.60;;;19.50;87.80;;;;;;5022771;28;20136;-68
2021/08/27 12:48:22;;;;;;;2.05;0.80;;;19.40;88.80;;;;;;5023436;28;20028;-68
2021/08/27 12:50:51;;;;;;;2.60;0.60;;;19.30;88.50;;;;;;5025211;28;20986;-67
2021/08/27 12:53:25;;;;;;;1.02;0.60;;;19.70;89.40;;;;;;5026044;28;20044;-70
2021/08/27 12:56:04;;;;;;;1.10;0.68;;;21.10;87.40;;;;;;5024102;28;20723;-68